Time,TemperatureF,DewpointF,PressureIn,WindDirection,WindDirectionDegrees,WindSpeedMPH,WindSpeedGustMPH,Humidity,HourlyPrecipIn,Conditions,Clouds,dailyrainin,SoftwareType,DateUTC
2013-03-30 00:26:00,52.4,46.0,30.10,East,88,0.0,-999.0,80,-99.99,,,0.00,weatherlink.com 1.10,2013-03-30 07:26:00,
2013-03-30 00:41:00,52.8,46.0,30.10,ENE,78,0.0,-999.0,79,-99.99,,,0.00,weatherlink.com 1.10,2013-03-30 07:41:00,
2013-03-30 00:56:00,53.0,47.0,30.11,ENE,78,0.0,-999.0,79,-99.99,,,0.00,weatherlink.com 1.10,2013-03-30 07:56:00,
2013-03-30 01:11:00,52.1,46.0,30.10,ENE,63,0.0,-999.0,80,-99.99,,,0.00,weatherlink.com 1.10,2013-03-30 08:11:00,
2013-03-30 01:26:00,52.6,47.0,30.09,ENE,63,0.0,-999.0,80,-99.99,,,0.00,weatherlink.com 1.10,2013-03-30 08:26:00,
2013-03-30 01:41:00,53.0,46.0,30.09,ENE,63,0.0,-999.0,77,-99.99,,,0.00,weatherlink.com 1.10,2013-03-30 08:41:00,
2013-03-30 01:56:00,52.9,46.0,30.10,ENE,63,0.0,-999.0,78,-99.99,,,0.00,weatherlink.com 1.10,2013-03-30 08:56:00,
2013-03-30 02:11:00,52.0,46.0,30.09,NE,41,0.0,-999.0,80,-99.99,,,0.00,weatherlink.com 1.10,2013-03-30 09:11:00,
2013-03-30 02:25:00,52.0,47.0,30.10,ESE,123,0.0,-999.0,82,-99.99,,,0.00,weatherlink.com 1.10,2013-03-30 09:25:00,
2013-03-30 02:56:00,51.2,46.0,30.10,East,97,0.0,-999.0,83,-99.99,,,0.00,weatherlink.com 1.10,2013-03-30 09:56:00,
2013-03-30 03:11:00,49.9,45.0,30.10,East,97,0.0,-999.0,84,-99.99,,,0.00,weatherlink.com 1.10,2013-03-30 10:11:00,
2013-03-30 03:26:00,49.9,46.0,30.10,East,86,0.0,-999.0,86,-99.99,,,0.00,weatherlink.com 1.10,2013-03-30 10:26:00,
2013-03-30 03:41:00,49.7,46.0,30.09,ENE,61,0.0,-999.0,86,-99.99,,,0.00,weatherlink.com 1.10,2013-03-30 10:41:00,
2013-03-30 03:56:00,49.8,46.0,30.09,ENE,69,0.0,-999.0,87,-99.99,,,0.00,weatherlink.com 1.10,2013-03-30 10:56:00,
2013-03-30 04:26:00,51.0,47.0,30.07,East,91,0.0,-999.0,85,-99.99,,,0.00,weatherlink.com 1.10,2013-03-30 11:26:00,
2013-03-30 04:56:00,51.4,46.0,30.07,ENE,67,0.0,-999.0,81,-99.99,,,0.00,weatherlink.com 1.10,2013-03-30 11:56:00,
2013-03-30 05:11:00,52.0,45.0,30.07,East,90,0.0,-999.0,77,-99.99,,,0.00,weatherlink.com 1.10,2013-03-30 12:11:00,
2013-03-30 05:26:00,53.2,44.0,30.07,ESE,115,0.0,-999.0,70,-99.99,,,0.00,weatherlink.com 1.10,2013-03-30 12:26:00,
2013-03-30 05:41:00,53.6,42.0,30.07,East,87,2.0,-999.0,65,-99.99,,,0.00,weatherlink.com 1.10,2013-03-30 12:41:00,
2013-03-30 05:56:00,53.3,42.0,30.08,ENE,69,0.0,-999.0,66,-99.99,,,0.00,weatherlink.com 1.10,2013-03-30 12:56:00,
2013-03-30 06:11:00,48.6,41.0,30.08,East,101,0.0,-999.0,74,-99.99,,,0.00,weatherlink.com 1.10,2013-03-30 13:11:00,
2013-03-30 06:26:00,48.2,42.0,30.08,ENE,78,0.0,-999.0,78,-99.99,,,0.00,weatherlink.com 1.10,2013-03-30 13:26:00,
2013-03-30 06:40:00,46.7,42.0,30.10,ENE,70,0.0,-999.0,82,-99.99,,,0.00,weatherlink.com 1.10,2013-03-30 13:40:00,
2013-03-30 06:56:00,45.7,42.0,30.10,ENE,71,0.0,-999.0,86,-99.99,,,0.00,weatherlink.com 1.10,2013-03-30 13:56:00,
2013-03-30 07:11:00,45.4,42.0,30.10,ENE,78,0.0,-999.0,87,-99.99,,,0.00,weatherlink.com 1.10,2013-03-30 14:11:00,
2013-03-30 07:26:00,45.5,43.0,30.11,ESE,103,0.0,-999.0,89,-99.99,,,0.00,weatherlink.com 1.10,2013-03-30 14:26:00,
2013-03-30 07:41:00,45.4,43.0,30.12,ENE,68,1.0,-999.0,90,-99.99,,,0.00,weatherlink.com 1.10,2013-03-30 14:41:00,
2013-03-30 07:56:00,45.5,43.0,30.12,ENE,62,3.0,-999.0,91,-99.99,,,0.00,weatherlink.com 1.10,2013-03-30 14:56:00,
2013-03-30 08:10:00,45.7,43.0,30.12,NE,52,3.0,-999.0,91,-99.99,,,0.00,weatherlink.com 1.10,2013-03-30 15:10:00,
2013-03-30 08:25:00,46.0,44.0,30.13,East,86,0.0,-999.0,92,-99.99,,,0.00,weatherlink.com 1.10,2013-03-30 15:25:00,
2013-03-30 08:40:00,46.3,44.0,30.12,East,82,0.0,-999.0,92,-99.99,,,0.00,weatherlink.com 1.10,2013-03-30 15:40:00,
2013-03-30 08:55:00,46.7,45.0,30.12,ESE,121,0.0,-999.0,92,-99.99,,,0.00,weatherlink.com 1.10,2013-03-30 15:55:00,
2013-03-30 09:10:00,46.9,45.0,30.12,ENE,63,0.0,-999.0,93,-99.99,,,0.00,weatherlink.com 1.10,2013-03-30 16:10:00,
2013-03-30 09:25:00,47.2,45.0,30.12,NE,52,0.0,-999.0,93,-99.99,,,0.00,weatherlink.com 1.10,2013-03-30 16:25:00,
2013-03-30 09:40:00,47.6,46.0,30.13,East,88,0.0,-999.0,93,-99.99,,,0.00,weatherlink.com 1.10,2013-03-30 16:40:00,
2013-03-30 09:55:00,47.3,45.0,30.12,East,92,0.0,-999.0,93,-99.99,,,0.00,weatherlink.com 1.10,2013-03-30 16:55:00,
2013-03-30 10:10:00,49.0,47.0,30.11,ENE,78,0.0,-999.0,94,-99.99,,,0.00,weatherlink.com 1.10,2013-03-30 17:10:00,
2013-03-30 10:25:00,49.4,48.0,30.13,West,267,0.0,-999.0,94,-99.99,,,0.00,weatherlink.com 1.10,2013-03-30 17:25:00,
2013-03-30 10:40:00,50.5,49.0,30.13,ESE,111,0.0,-999.0,94,-99.99,,,0.00,weatherlink.com 1.10,2013-03-30 17:40:00,
2013-03-30 10:55:00,52.0,50.0,30.13,SE,130,1.0,-999.0,92,-99.99,,,0.00,weatherlink.com 1.10,2013-03-30 17:55:00,
2013-03-30 11:10:00,55.2,51.0,30.14,NE,42,3.0,-999.0,84,-99.99,,,0.00,weatherlink.com 1.10,2013-03-30 18:10:00,
2013-03-30 11:25:00,57.9,47.0,30.14,East,87,0.0,-999.0,66,-99.99,,,0.00,weatherlink.com 1.10,2013-03-30 18:25:00,
2013-03-30 11:40:00,58.7,46.0,30.14,ESE,115,1.0,-999.0,63,-99.99,,,0.00,weatherlink.com 1.10,2013-03-30 18:40:00,
2013-03-30 11:55:00,59.3,45.0,30.14,ESE,122,0.0,-999.0,60,-99.99,,,0.00,weatherlink.com 1.10,2013-03-30 18:55:00,
2013-03-30 12:10:00,59.5,46.0,30.14,SE,133,2.0,-999.0,61,-99.99,,,0.00,weatherlink.com 1.10,2013-03-30 19:10:00,
2013-03-30 12:25:00,58.7,49.0,30.14,SE,138,2.0,-999.0,70,-99.99,,,0.00,weatherlink.com 1.10,2013-03-30 19:25:00,
2013-03-30 12:40:00,57.7,49.0,30.14,SE,132,0.0,-999.0,72,-99.99,,,0.00,weatherlink.com 1.10,2013-03-30 19:40:00,
2013-03-30 12:55:00,55.2,47.0,30.14,SE,145,0.0,-999.0,74,-99.99,,,0.00,weatherlink.com 1.10,2013-03-30 19:55:00,
2013-03-30 13:10:00,55.1,47.0,30.14,SE,136,0.0,-999.0,75,-99.99,,,0.00,weatherlink.com 1.10,2013-03-30 20:10:00,
2013-03-30 13:25:00,55.8,48.0,30.14,ENE,76,0.0,-999.0,75,-99.99,,,0.00,weatherlink.com 1.10,2013-03-30 20:25:00,
2013-03-30 13:40:00,57.1,49.0,30.13,SE,126,0.0,-999.0,74,-99.99,,,0.00,weatherlink.com 1.10,2013-03-30 20:40:00,
2013-03-30 13:55:00,55.9,48.0,30.14,SSW,192,0.0,-999.0,74,-99.99,,,0.00,weatherlink.com 1.10,2013-03-30 20:55:00,
2013-03-30 14:10:00,52.3,46.0,30.14,SE,134,0.0,-999.0,80,-99.99,,,0.00,weatherlink.com 1.10,2013-03-30 21:10:00,
2013-03-30 14:25:00,55.8,49.0,30.13,ESE,122,0.0,-999.0,79,-99.99,,,0.00,weatherlink.com 1.10,2013-03-30 21:25:00,
2013-03-30 14:40:00,55.9,48.0,30.12,ESE,121,6.0,-999.0,76,-99.99,,,0.00,weatherlink.com 1.10,2013-03-30 21:40:00,
2013-03-30 14:55:00,55.0,48.0,30.11,ESE,116,4.0,-999.0,78,-99.99,,,0.00,weatherlink.com 1.10,2013-03-30 21:55:00,
2013-03-30 15:10:00,55.3,49.0,30.11,SE,126,0.0,-999.0,79,-99.99,,,0.00,weatherlink.com 1.10,2013-03-30 22:10:00,
2013-03-30 15:25:00,52.3,48.0,30.11,SE,128,0.0,-999.0,84,-99.99,,,0.00,weatherlink.com 1.10,2013-03-30 22:25:00,
2013-03-30 15:40:00,52.9,49.0,30.11,ESE,122,4.0,-999.0,85,-99.99,,,0.00,weatherlink.com 1.10,2013-03-30 22:40:00,
2013-03-30 15:56:00,54.4,50.0,30.11,SE,138,0.0,-999.0,86,-99.99,,,0.00,weatherlink.com 1.10,2013-03-30 22:56:00,
2013-03-30 16:10:00,54.2,51.0,30.10,SE,126,0.0,-999.0,87,-99.99,,,0.00,weatherlink.com 1.10,2013-03-30 23:10:00,
2013-03-30 16:25:00,57.5,52.0,30.09,NE,41,1.0,-999.0,83,-99.99,,,0.00,weatherlink.com 1.10,2013-03-30 23:25:00,
2013-03-30 16:40:00,58.1,49.0,30.08,ESE,110,1.0,-999.0,73,-99.99,,,0.00,weatherlink.com 1.10,2013-03-30 23:40:00,
2013-03-30 16:55:00,56.8,48.0,30.09,SE,140,2.0,-999.0,72,-99.99,,,0.00,weatherlink.com 1.10,2013-03-30 23:55:00,
2013-03-30 17:10:00,55.8,48.0,30.09,SE,133,1.0,-999.0,74,-99.99,,,0.00,weatherlink.com 1.10,2013-03-31 00:10:00,
2013-03-30 17:25:00,55.3,48.0,30.09,SE,134,0.0,-999.0,76,-99.99,,,0.00,weatherlink.com 1.10,2013-03-31 00:25:00,
2013-03-30 17:40:00,53.7,47.0,30.09,East,94,0.0,-999.0,79,-99.99,,,0.00,weatherlink.com 1.10,2013-03-31 00:40:00,
2013-03-30 17:55:00,52.1,47.0,30.09,East,94,5.0,-999.0,84,-99.99,,,0.01,weatherlink.com 1.10,2013-03-31 00:55:00,
2013-03-30 18:11:00,51.6,48.0,30.09,East,91,0.0,-999.0,86,-99.99,,,0.01,weatherlink.com 1.10,2013-03-31 01:11:00,
2013-03-30 18:26:00,51.7,48.0,30.08,ENE,60,0.0,-999.0,88,-99.99,,,0.01,weatherlink.com 1.10,2013-03-31 01:26:00,
2013-03-30 18:41:00,51.9,49.0,30.08,ENE,71,0.0,-999.0,89,-99.99,,,0.01,weatherlink.com 1.10,2013-03-31 01:41:00,
2013-03-30 18:56:00,52.4,49.0,30.09,NE,41,0.0,-999.0,89,-99.99,,,0.01,weatherlink.com 1.10,2013-03-31 01:56:00,
2013-03-30 19:11:00,52.5,49.0,30.09,ENE,72,0.0,-999.0,88,-99.99,,,0.01,weatherlink.com 1.10,2013-03-31 02:11:00,
2013-03-30 19:26:00,51.3,48.0,30.08,ESE,115,0.0,-999.0,89,-99.99,,,0.01,weatherlink.com 1.10,2013-03-31 02:26:00,
2013-03-30 19:41:00,50.7,48.0,30.08,East,95,0.0,-999.0,90,-99.99,,,0.02,weatherlink.com 1.10,2013-03-31 02:41:00,
2013-03-30 20:26:00,50.6,48.0,30.09,ESE,104,0.0,-999.0,91,-99.99,,,0.09,weatherlink.com 1.10,2013-03-31 03:26:00,
2013-03-30 20:41:00,50.3,48.0,30.08,NE,40,0.0,-999.0,92,-99.99,,,0.19,weatherlink.com 1.10,2013-03-31 03:41:00,
2013-03-30 21:11:00,51.1,49.0,30.09,SE,125,0.0,-999.0,93,-99.99,,,0.27,weatherlink.com 1.10,2013-03-31 04:11:00,
2013-03-30 21:26:00,51.2,49.0,30.10,ESE,116,0.0,-999.0,93,-99.99,,,0.34,weatherlink.com 1.10,2013-03-31 04:26:00,
2013-03-30 21:41:00,51.1,49.0,30.10,ENE,72,6.0,-999.0,93,-99.99,,,0.45,weatherlink.com 1.10,2013-03-31 04:41:00,
2013-03-30 21:56:00,51.5,50.0,30.10,SE,140,8.0,-999.0,93,-99.99,,,0.58,weatherlink.com 1.10,2013-03-31 04:56:00,
2013-03-30 22:11:00,51.4,50.0,30.11,SE,137,13.0,-999.0,93,-99.99,,,0.64,weatherlink.com 1.10,2013-03-31 05:11:00,
2013-03-30 22:26:00,51.3,50.0,30.11,SE,134,6.0,-999.0,94,-99.99,,,0.68,weatherlink.com 1.10,2013-03-31 05:26:00,
2013-03-30 22:41:00,51.2,50.0,30.12,ESE,112,8.0,-999.0,94,-99.99,,,0.69,weatherlink.com 1.10,2013-03-31 05:41:00,
2013-03-30 22:56:00,51.1,50.0,30.12,East,92,1.0,-999.0,94,-99.99,,,0.70,weatherlink.com 1.10,2013-03-31 05:56:00,
2013-03-30 23:11:00,51.0,49.0,30.12,SE,132,5.0,-999.0,94,-99.99,,,0.70,weatherlink.com 1.10,2013-03-31 06:11:00,
2013-03-30 23:41:00,50.6,49.0,30.12,ESE,109,3.0,-999.0,95,-99.99,,,0.71,weatherlink.com 1.10,2013-03-31 06:41:00,
2013-03-30 23:56:00,50.7,49.0,30.12,SE,138,3.0,-999.0,95,-99.99,,,0.71,weatherlink.com 1.10,2013-03-31 06:56:00,